createdAt,value
2024-02-16T00:01:16.493Z,85.83
2024-02-16T00:03:44.386Z,85.99
2024-02-16T00:06:13.062Z,85.56
2024-02-16T00:08:41.238Z,85.34
2024-02-16T00:11:10.195Z,85.49
2024-02-16T00:13:38.571Z,85.52
2024-02-16T00:16:07.005Z,85.27
2024-02-16T00:18:34.900Z,85.20
2024-02-16T00:21:03.477Z,85.32
2024-02-16T00:23:31.463Z,85.20
2024-02-16T00:25:59.247Z,85.15
2024-02-16T00:28:27.020Z,85.53
2024-02-16T00:30:54.813Z,85.76
2024-02-16T00:33:22.601Z,85.71
2024-02-16T00:35:51.044Z,85.66
2024-02-16T00:38:18.856Z,85.59
2024-02-16T00:40:46.564Z,85.72
2024-02-16T00:43:15.267Z,85.83
2024-02-16T00:45:45.615Z,85.76
2024-02-16T00:48:13.766Z,85.62
2024-02-16T00:50:43.974Z,85.87
2024-02-16T00:53:12.055Z,85.56
2024-02-16T00:55:43.076Z,85.35
2024-02-16T00:58:10.921Z,85.32
2024-02-16T01:00:39.288Z,85.22
2024-02-16T01:03:07.256Z,85.21
2024-02-16T01:05:36.771Z,85.28
2024-02-16T01:08:05.120Z,85.27
2024-02-16T01:10:33.239Z,85.15
2024-02-16T01:13:00.942Z,84.76
2024-02-16T01:15:28.759Z,84.74
2024-02-16T01:17:56.630Z,84.67
2024-02-16T01:20:24.516Z,84.68
2024-02-16T01:22:52.371Z,84.66
2024-02-16T01:25:20.159Z,84.46
2024-02-16T01:27:48.003Z,84.63
2024-02-16T01:30:16.753Z,84.18
2024-02-16T01:32:45.314Z,84.59
2024-02-16T01:35:15.825Z,84.50
2024-02-16T01:37:44.155Z,84.53
2024-02-16T01:40:20.747Z,84.53
2024-02-16T01:42:48.958Z,84.37
2024-02-16T01:45:17.696Z,84.46
2024-02-16T01:47:48.740Z,84.53
2024-02-16T01:50:18.311Z,84.50
2024-02-16T01:52:47.921Z,84.29
2024-02-16T01:55:16.661Z,84.44
2024-02-16T01:57:46.825Z,84.48
2024-02-16T02:00:19.573Z,84.23
2024-02-16T02:02:48.640Z,84.56
2024-02-16T02:05:17.062Z,84.43
2024-02-16T02:07:45.228Z,84.58
2024-02-16T02:10:16.043Z,84.43
2024-02-16T02:12:44.177Z,84.34
2024-02-16T02:15:13.130Z,84.51
2024-02-16T02:17:41.186Z,84.43
2024-02-16T02:20:12.206Z,84.55
2024-02-16T02:22:40.608Z,84.68
2024-02-16T02:25:12.170Z,84.78
2024-02-16T02:27:40.172Z,84.86
2024-02-16T02:30:08.837Z,84.94
2024-02-16T02:32:36.667Z,84.94
2024-02-16T02:35:05.631Z,85.05
2024-02-16T02:37:34.028Z,84.93
2024-02-16T02:40:01.881Z,84.90
2024-02-16T02:42:29.842Z,85.01
2024-02-16T02:44:57.728Z,85.01
2024-02-16T02:47:25.490Z,85.01
2024-02-16T02:49:53.375Z,85.08
2024-02-16T02:52:22.527Z,84.69
2024-02-16T02:54:50.345Z,84.94
2024-02-16T02:57:18.084Z,85.14
2024-02-16T02:59:46.750Z,85.11
2024-02-16T03:02:14.603Z,84.78
2024-02-16T03:04:42.278Z,85.07
2024-02-16T03:07:10.116Z,85.09
2024-02-16T03:09:38.031Z,85.10
2024-02-16T03:12:05.923Z,85.10
2024-02-16T03:14:33.704Z,84.97
2024-02-16T03:17:01.385Z,85.12
2024-02-16T03:19:29.167Z,85.33
2024-02-16T03:21:57.032Z,85.16
2024-02-16T03:24:24.782Z,85.12
2024-02-16T03:26:52.663Z,85.36
2024-02-16T03:29:20.452Z,85.47
2024-02-16T03:31:48.282Z,85.30
2024-02-16T03:34:16.294Z,85.33
2024-02-16T03:36:44.355Z,85.46
2024-02-16T03:39:12.437Z,85.43
2024-02-16T03:41:40.250Z,85.45
2024-02-16T03:44:08.045Z,85.62
2024-02-16T03:46:35.914Z,85.66
2024-02-16T03:49:03.786Z,85.60
2024-02-16T03:51:31.737Z,86.01
2024-02-16T03:53:59.479Z,85.74
2024-02-16T03:56:27.777Z,86.00
2024-02-16T03:58:55.446Z,85.91
2024-02-16T04:01:23.274Z,86.00
2024-02-16T04:03:51.080Z,86.03
2024-02-16T04:06:19.195Z,86.42
2024-02-16T04:08:46.954Z,86.53
2024-02-16T04:11:16.430Z,86.56
2024-02-16T04:13:44.308Z,86.37
2024-02-16T04:16:12.257Z,86.38
2024-02-16T04:18:40.112Z,86.60
2024-02-16T04:21:08.062Z,86.51
2024-02-16T04:23:35.868Z,86.72
2024-02-16T04:26:03.757Z,86.35
2024-02-16T04:28:31.450Z,86.50
2024-02-16T04:30:59.208Z,86.71
2024-02-16T04:33:27.466Z,86.92
2024-02-16T04:35:55.273Z,86.79
2024-02-16T04:38:23.008Z,86.90
2024-02-16T04:40:50.880Z,86.91
2024-02-16T04:43:18.830Z,87.07
2024-02-16T04:45:46.841Z,87.09
2024-02-16T04:48:14.814Z,87.12
2024-02-16T04:50:42.890Z,86.94
2024-02-16T04:53:10.602Z,86.96
2024-02-16T04:55:38.276Z,87.06
2024-02-16T04:58:10.563Z,87.26
2024-02-16T05:00:39.453Z,87.32
2024-02-16T05:03:08.537Z,87.34
2024-02-16T05:05:36.648Z,86.99
2024-02-16T05:08:05.351Z,86.93
2024-02-16T05:10:33.098Z,87.19
2024-02-16T05:13:00.919Z,87.15
2024-02-16T05:15:29.155Z,87.29
2024-02-16T05:17:57.017Z,87.21
2024-02-16T05:20:25.229Z,87.51
2024-02-16T05:22:52.942Z,87.84
2024-02-16T05:25:21.022Z,87.35
2024-02-16T05:27:48.879Z,87.89
2024-02-16T05:30:17.571Z,87.76
2024-02-16T05:32:50.069Z,88.48
2024-02-16T05:35:18.619Z,88.19
2024-02-16T05:37:52.614Z,87.88
2024-02-16T05:40:23.748Z,87.90
2024-02-16T05:42:54.780Z,87.77
2024-02-16T05:45:22.656Z,87.95
2024-02-16T05:47:51.890Z,88.03
2024-02-16T05:50:22.761Z,87.72
2024-02-16T05:52:51.288Z,87.81
2024-02-16T05:55:22.274Z,87.75
2024-02-16T05:57:50.114Z,87.83
2024-02-16T06:00:22.770Z,88.33
2024-02-16T06:02:50.655Z,87.95
2024-02-16T06:05:18.360Z,87.76
2024-02-16T06:07:46.042Z,87.87
2024-02-16T06:10:13.854Z,88.57
2024-02-16T06:12:41.818Z,88.61
2024-02-16T06:15:09.988Z,88.22
2024-02-16T06:17:38.313Z,88.19
2024-02-16T06:20:07.469Z,88.12
2024-02-16T06:22:35.221Z,88.15
2024-02-16T06:25:03.217Z,88.35
2024-02-16T06:27:31.230Z,87.90
2024-02-16T06:29:59.173Z,88.57
2024-02-16T06:32:29.925Z,88.70
2024-02-16T06:34:58.404Z,88.29
2024-02-16T06:37:26.449Z,88.62
2024-02-16T06:39:54.285Z,88.91
2024-02-16T06:42:22.003Z,88.85
2024-02-16T06:44:50.348Z,88.79
2024-02-16T06:47:18.074Z,88.61
2024-02-16T06:49:47.626Z,88.16
2024-02-16T06:52:16.193Z,88.26
2024-02-16T06:54:44.409Z,88.00
2024-02-16T06:57:13.339Z,88.02
2024-02-16T06:59:41.772Z,87.72
2024-02-16T07:02:11.991Z,87.37
2024-02-16T07:04:43.279Z,87.23
2024-02-16T07:07:11.527Z,87.23
2024-02-16T07:09:40.710Z,86.94
2024-02-16T07:12:08.881Z,86.53
2024-02-16T07:14:36.723Z,86.21
2024-02-16T07:17:04.714Z,85.96
2024-02-16T07:19:32.495Z,85.51
2024-02-16T07:22:00.417Z,85.48
2024-02-16T07:24:28.940Z,85.09
2024-02-16T07:26:57.001Z,84.64
2024-02-16T07:29:24.882Z,83.58
2024-02-16T07:31:53.732Z,84.01
2024-02-16T07:34:21.511Z,82.79
2024-02-16T07:36:49.315Z,82.72
2024-02-16T07:39:17.122Z,82.63
2024-02-16T07:41:45.050Z,82.39
2024-02-16T07:44:12.830Z,81.61
2024-02-16T07:46:44.717Z,80.22
2024-02-16T07:49:12.909Z,80.56
2024-02-16T07:51:41.595Z,80.48
2024-02-16T07:54:10.080Z,79.80
2024-02-16T07:56:38.057Z,78.61
2024-02-16T07:59:05.784Z,78.67
2024-02-16T08:01:33.522Z,78.39
2024-02-16T08:04:04.329Z,76.61
2024-02-16T08:06:34.697Z,75.45
2024-02-16T08:09:03.074Z,74.24
2024-02-16T08:11:31.215Z,75.52
2024-02-16T08:14:01.754Z,72.66
2024-02-16T08:16:29.784Z,71.89
2024-02-16T08:18:57.687Z,72.50
2024-02-16T08:21:25.513Z,71.86
2024-02-16T08:23:53.650Z,70.88
2024-02-16T08:26:22.560Z,70.19
2024-02-16T08:28:50.440Z,68.93
2024-02-16T08:31:19.395Z,69.24
2024-02-16T08:33:48.517Z,68.31
2024-02-16T08:36:16.950Z,67.77
2024-02-16T08:38:45.023Z,68.15
2024-02-16T08:41:12.807Z,65.65
2024-02-16T08:43:40.709Z,65.48
2024-02-16T08:46:09.098Z,66.29
2024-02-16T08:48:37.337Z,63.90
2024-02-16T08:51:07.325Z,64.32
2024-02-16T08:53:35.441Z,64.16
2024-02-16T08:56:03.450Z,63.05
2024-02-16T08:58:31.219Z,62.45
2024-02-16T09:00:59.043Z,61.73
2024-02-16T09:03:27.471Z,61.58
2024-02-16T09:05:55.605Z,61.38
2024-02-16T09:08:23.418Z,60.89
2024-02-16T09:10:52.275Z,60.29
2024-02-16T09:13:32.579Z,58.96
2024-02-16T09:16:02.889Z,58.14
2024-02-16T09:18:31.270Z,59.40
2024-02-16T09:20:59.449Z,57.17
2024-02-16T09:23:27.782Z,56.73
2024-02-16T09:25:56.557Z,56.57
2024-02-16T09:28:29.912Z,57.11
2024-02-16T09:30:58.946Z,55.24
2024-02-16T09:33:28.835Z,55.70
2024-02-16T09:35:56.840Z,56.27
2024-02-16T09:38:24.723Z,55.58
2024-02-16T09:40:52.836Z,55.51
2024-02-16T09:43:28.624Z,55.31
2024-02-16T09:45:57.771Z,54.55
2024-02-16T09:48:28.299Z,54.81
2024-02-16T09:51:00.377Z,55.29
2024-02-16T09:53:30.449Z,54.99
2024-02-16T09:55:58.512Z,55.39
2024-02-16T09:58:26.257Z,55.29
2024-02-16T10:00:56.196Z,55.28
2024-02-16T10:03:34.097Z,55.31
2024-02-16T10:06:10.930Z,54.90
2024-02-16T10:09:08.346Z,55.24
2024-02-16T10:11:36.411Z,54.90
2024-02-16T10:14:05.530Z,54.46
2024-02-16T10:16:33.470Z,54.05
2024-02-16T10:19:08.716Z,53.39
2024-02-16T10:21:36.712Z,53.93
2024-02-16T10:24:10.987Z,53.62
2024-02-16T10:26:40.322Z,52.71
2024-02-16T10:29:15.935Z,52.21
2024-02-16T10:31:45.038Z,52.32
2024-02-16T10:34:13.517Z,52.51
2024-02-16T10:36:43.336Z,51.05
2024-02-16T10:39:13.089Z,50.55
2024-02-16T10:41:43.056Z,50.63
2024-02-16T10:44:11.693Z,50.89
2024-02-16T10:46:41.001Z,50.50
2024-02-16T10:49:10.461Z,51.25
2024-02-16T10:51:43.782Z,51.26
2024-02-16T10:54:15.526Z,50.88
2024-02-16T10:56:43.446Z,50.57
2024-02-16T10:59:12.398Z,49.99
2024-02-16T11:01:42.991Z,50.50
2024-02-16T11:04:17.096Z,50.42
2024-02-16T11:06:46.938Z,50.32
2024-02-16T11:09:31.949Z,50.39
2024-02-16T11:12:01.526Z,50.10
2024-02-16T11:14:37.801Z,48.70
2024-02-16T11:17:13.091Z,49.69
2024-02-16T11:19:46.708Z,49.19
2024-02-16T11:22:20.348Z,49.22
2024-02-16T11:24:51.326Z,48.84
2024-02-16T11:27:21.181Z,48.72
2024-02-16T11:29:50.919Z,48.79
2024-02-16T11:32:22.397Z,48.89
2024-02-16T11:34:50.543Z,49.16
2024-02-16T11:37:19.301Z,48.12
2024-02-16T11:39:48.218Z,48.80
2024-02-16T11:42:21.131Z,48.18
2024-02-16T11:44:55.221Z,48.79
2024-02-16T11:47:29.990Z,49.43
2024-02-16T11:50:12.906Z,48.86
2024-02-16T11:52:41.821Z,49.40
2024-02-16T11:55:10.786Z,48.94
2024-02-16T11:57:39.818Z,49.40
2024-02-16T12:00:10.364Z,49.07
2024-02-16T12:02:38.567Z,49.27
2024-02-16T12:05:07.098Z,49.53
2024-02-16T12:07:41.234Z,49.29
2024-02-16T12:10:10.699Z,49.35
2024-02-16T12:12:38.613Z,49.50
2024-02-16T12:15:07.692Z,49.39
2024-02-16T12:17:35.888Z,49.75
2024-02-16T12:20:04.564Z,50.20
2024-02-16T12:22:32.559Z,50.12
2024-02-16T12:25:03.550Z,50.81
2024-02-16T12:27:31.791Z,50.65
2024-02-16T12:29:59.658Z,50.31
2024-02-16T12:32:28.247Z,50.49
2024-02-16T12:34:56.326Z,50.38
2024-02-16T12:37:24.147Z,50.62
2024-02-16T12:39:51.854Z,50.76
2024-02-16T12:42:19.700Z,51.50
2024-02-16T12:44:47.537Z,51.55
2024-02-16T12:47:17.965Z,51.65
2024-02-16T12:49:45.903Z,51.77
2024-02-16T12:52:21.225Z,52.44
2024-02-16T12:55:05.545Z,53.02
2024-02-16T12:57:41.255Z,53.80
2024-02-16T13:00:10.089Z,53.68
2024-02-16T13:02:37.812Z,53.19
2024-02-16T13:05:06.107Z,53.81
2024-02-16T13:07:34.191Z,53.61
2024-02-16T13:10:02.839Z,53.39
2024-02-16T13:12:30.674Z,53.12
2024-02-16T13:15:01.640Z,53.19
2024-02-16T13:17:32.178Z,52.97
2024-02-16T13:20:07.998Z,53.22
2024-02-16T13:22:36.721Z,53.90
2024-02-16T13:25:05.730Z,53.91
2024-02-16T13:27:34.711Z,54.44
2024-02-16T13:30:08.789Z,54.38
2024-02-16T13:32:40.620Z,55.13
2024-02-16T13:35:09.664Z,55.59
2024-02-16T13:37:38.278Z,55.80
2024-02-16T13:40:08.623Z,56.05
2024-02-16T13:42:36.518Z,56.11
2024-02-16T13:45:04.855Z,56.10
2024-02-16T13:47:32.863Z,56.38
2024-02-16T13:50:01.124Z,56.44
2024-02-16T13:52:29.301Z,57.10
2024-02-16T13:54:57.099Z,57.47
2024-02-16T13:57:24.949Z,57.85
2024-02-16T13:59:52.767Z,58.16
2024-02-16T14:02:20.692Z,58.43
2024-02-16T14:04:48.583Z,58.81
2024-02-16T14:07:16.443Z,59.17
2024-02-16T14:09:44.355Z,59.20
2024-02-16T14:12:13.208Z,59.78
2024-02-16T14:14:40.977Z,59.92
2024-02-16T14:17:08.648Z,60.28
2024-02-16T14:19:39.083Z,60.54
2024-02-16T14:22:08.484Z,60.16
2024-02-16T14:24:36.479Z,60.35
2024-02-16T14:27:05.938Z,61.10
2024-02-16T14:29:33.910Z,61.04
2024-02-16T14:32:01.710Z,61.01
2024-02-16T14:34:29.762Z,61.06
2024-02-16T14:36:57.534Z,61.35
2024-02-16T14:39:26.674Z,61.16
2024-02-16T14:41:54.629Z,61.31
2024-02-16T14:44:22.574Z,61.55
2024-02-16T14:46:50.308Z,61.83
2024-02-16T14:49:23.309Z,61.91
2024-02-16T14:51:53.855Z,61.63
2024-02-16T14:54:21.827Z,61.72
2024-02-16T14:56:53.347Z,61.67
2024-02-16T14:59:22.860Z,61.72
2024-02-16T15:01:50.568Z,61.86
2024-02-16T15:04:18.365Z,62.00
2024-02-16T15:06:46.488Z,62.39
2024-02-16T15:09:14.542Z,62.70
2024-02-16T15:11:42.647Z,62.57
2024-02-16T15:14:10.436Z,62.75
2024-02-16T15:16:38.194Z,62.84
2024-02-16T15:19:06.120Z,63.03
2024-02-16T15:21:34.060Z,63.32
2024-02-16T15:24:01.874Z,63.99
2024-02-16T15:26:29.824Z,63.83
2024-02-16T15:28:57.811Z,64.35
2024-02-16T15:31:25.506Z,64.60
2024-02-16T15:33:53.647Z,64.91
2024-02-16T15:36:21.799Z,65.28
2024-02-16T15:38:54.003Z,64.98
2024-02-16T15:41:24.138Z,65.52
2024-02-16T15:43:51.950Z,65.26
2024-02-16T15:46:19.717Z,65.35
2024-02-16T15:48:49.795Z,66.26
2024-02-16T15:51:17.820Z,66.41
2024-02-16T15:53:45.710Z,66.64
2024-02-16T15:56:13.914Z,66.67
2024-02-16T15:58:43.755Z,67.20
2024-02-16T16:01:11.940Z,67.26
2024-02-16T16:03:40.575Z,67.21
2024-02-16T16:06:08.834Z,67.04
2024-02-16T16:08:36.801Z,68.40
2024-02-16T16:11:04.769Z,67.89
2024-02-16T16:13:32.798Z,68.60
2024-02-16T16:16:00.575Z,68.61
2024-02-16T16:18:28.345Z,69.06
2024-02-16T16:20:56.133Z,69.76
2024-02-16T16:23:23.899Z,69.34
2024-02-16T16:25:51.820Z,70.35
2024-02-16T16:28:19.572Z,70.22
2024-02-16T16:30:47.683Z,70.34
2024-02-16T16:33:16.749Z,70.52
2024-02-16T16:35:44.961Z,71.56
2024-02-16T16:38:12.914Z,71.65
2024-02-16T16:40:40.616Z,71.08
2024-02-16T16:43:08.292Z,71.15
2024-02-16T16:45:36.080Z,71.42
2024-02-16T16:48:04.500Z,71.78
2024-02-16T16:50:32.319Z,71.46
2024-02-16T16:53:00.349Z,72.79
2024-02-16T16:55:28.662Z,71.70
2024-02-16T16:57:57.185Z,71.72
2024-02-16T17:00:25.593Z,72.16
2024-02-16T17:02:54.721Z,72.24
2024-02-16T17:05:22.741Z,72.57
2024-02-16T17:07:50.719Z,72.84
2024-02-16T17:10:18.533Z,73.18
2024-02-16T17:12:46.682Z,72.96
2024-02-16T17:15:21.147Z,72.90
2024-02-16T17:17:56.443Z,73.21
2024-02-16T17:20:25.965Z,73.64
2024-02-16T17:22:55.029Z,73.27
2024-02-16T17:25:26.189Z,73.62
2024-02-16T17:27:54.161Z,74.08
2024-02-16T17:30:22.782Z,73.58
2024-02-16T17:32:50.665Z,73.91
2024-02-16T17:35:20.289Z,74.13
2024-02-16T17:37:48.290Z,74.62
2024-02-16T17:40:17.488Z,74.64
2024-02-16T17:42:47.871Z,74.61
2024-02-16T17:45:16.263Z,74.82
2024-02-16T17:47:44.355Z,74.66
2024-02-16T17:50:13.607Z,75.01
2024-02-16T17:52:41.517Z,75.64
2024-02-16T17:55:09.465Z,75.30
2024-02-16T17:57:37.329Z,75.80
2024-02-16T18:00:08.902Z,76.23
2024-02-16T18:02:41.057Z,75.70
2024-02-16T18:05:13.836Z,76.59
2024-02-16T18:07:41.829Z,75.79
2024-02-16T18:10:10.220Z,76.43
2024-02-16T18:12:37.992Z,76.44
2024-02-16T18:15:06.800Z,76.42
2024-02-16T18:17:34.786Z,76.35
2024-02-16T18:20:03.738Z,76.32
2024-02-16T18:22:31.574Z,76.47
2024-02-16T18:24:59.460Z,76.38
2024-02-16T18:27:27.265Z,76.52
2024-02-16T18:29:55.007Z,77.56
2024-02-16T18:32:22.738Z,77.09
2024-02-16T18:34:50.552Z,77.22
2024-02-16T18:37:18.790Z,77.49
2024-02-16T18:39:46.801Z,77.44
2024-02-16T18:42:14.784Z,77.21
2024-02-16T18:44:42.900Z,77.27
2024-02-16T18:47:10.667Z,77.72
2024-02-16T18:49:39.146Z,77.40
2024-02-16T18:52:06.911Z,78.12
2024-02-16T18:54:34.972Z,77.57
2024-02-16T18:57:05.113Z,78.01
2024-02-16T18:59:33.028Z,78.21
2024-02-16T19:02:02.992Z,77.81
2024-02-16T19:04:31.217Z,78.09
2024-02-16T19:06:59.308Z,78.41
2024-02-16T19:09:27.236Z,77.56
2024-02-16T19:11:55.704Z,77.83
2024-02-16T19:14:25.051Z,78.06
2024-02-16T19:16:53.218Z,78.16
2024-02-16T19:19:20.972Z,78.40
2024-02-16T19:21:49.749Z,78.22
2024-02-16T19:24:22.772Z,78.43
2024-02-16T19:26:56.161Z,78.80
2024-02-16T19:29:23.938Z,78.57
2024-02-16T19:31:51.650Z,78.78
2024-02-16T19:34:19.438Z,79.21
2024-02-16T19:36:47.488Z,78.68
2024-02-16T19:39:16.790Z,78.63
2024-02-16T19:41:49.513Z,78.57
2024-02-16T19:44:22.137Z,79.58
2024-02-16T19:46:50.458Z,79.83
2024-02-16T19:49:18.333Z,79.55
2024-02-16T19:51:46.408Z,79.75
2024-02-16T19:54:15.332Z,79.38
2024-02-16T19:56:43.303Z,79.59
2024-02-16T19:59:11.057Z,79.20
2024-02-16T20:01:38.825Z,79.74
2024-02-16T20:04:06.753Z,79.66
2024-02-16T20:06:34.511Z,80.13
2024-02-16T20:09:04.161Z,79.94
2024-02-16T20:11:33.135Z,79.89
2024-02-16T20:14:01.161Z,80.51
2024-02-16T20:16:30.121Z,80.69
2024-02-16T20:18:58.852Z,80.48
2024-02-16T20:21:27.249Z,81.99
2024-02-16T20:23:55.066Z,81.26
2024-02-16T20:26:25.997Z,80.74
2024-02-16T20:28:53.844Z,81.10
2024-02-16T20:31:21.556Z,80.63
2024-02-16T20:33:49.436Z,80.79
2024-02-16T20:36:20.347Z,80.40
2024-02-16T20:38:48.230Z,81.64
2024-02-16T20:41:17.242Z,81.07
2024-02-16T20:43:44.963Z,81.83
2024-02-16T20:46:12.821Z,81.62
2024-02-16T20:48:40.609Z,81.18
2024-02-16T20:51:09.346Z,81.73
2024-02-16T20:53:41.121Z,81.57
2024-02-16T20:56:09.483Z,82.29
2024-02-16T20:58:37.377Z,82.22
2024-02-16T21:01:05.497Z,82.51
2024-02-16T21:03:33.620Z,83.20
2024-02-16T21:06:02.624Z,82.47
2024-02-16T21:08:30.559Z,82.98
2024-02-16T21:10:58.341Z,83.11
2024-02-16T21:13:26.126Z,83.14
2024-02-16T21:15:55.466Z,82.92
2024-02-16T21:18:23.351Z,82.93
2024-02-16T21:20:51.172Z,83.59
2024-02-16T21:23:18.903Z,83.63
2024-02-16T21:25:46.751Z,83.17
2024-02-16T21:28:16.742Z,83.04
2024-02-16T21:30:44.826Z,83.67
2024-02-16T21:33:14.884Z,83.61
2024-02-16T21:35:43.691Z,83.69
2024-02-16T21:38:12.469Z,83.99
2024-02-16T21:40:42.147Z,83.76
2024-02-16T21:43:09.846Z,82.94
2024-02-16T21:45:37.595Z,83.59
2024-02-16T21:48:08.484Z,83.22
2024-02-16T21:50:36.673Z,83.53
2024-02-16T21:53:04.788Z,84.70
2024-02-16T21:55:32.521Z,84.20
2024-02-16T21:58:00.274Z,85.51
2024-02-16T22:00:28.008Z,84.64
2024-02-16T22:02:56.090Z,84.71
2024-02-16T22:05:23.985Z,83.90
2024-02-16T22:07:52.075Z,85.28
2024-02-16T22:10:20.200Z,85.14
2024-02-16T22:12:48.101Z,85.10
2024-02-16T22:15:15.952Z,84.93
2024-02-16T22:17:43.773Z,84.95
2024-02-16T22:20:12.337Z,85.44
2024-02-16T22:22:40.011Z,85.62
2024-02-16T22:25:07.926Z,85.92
2024-02-16T22:27:35.772Z,85.75
2024-02-16T22:30:04.049Z,85.39
2024-02-16T22:32:31.856Z,85.53
2024-02-16T22:35:01.037Z,84.88
2024-02-16T22:37:29.696Z,86.96
2024-02-16T22:39:57.594Z,86.58
2024-02-16T22:42:25.480Z,86.43
2024-02-16T22:44:53.186Z,86.14
2024-02-16T22:47:21.112Z,86.29
2024-02-16T22:49:49.266Z,86.35
2024-02-16T22:52:17.189Z,86.08
2024-02-16T22:54:45.131Z,86.25
2024-02-16T22:57:13.060Z,87.84
2024-02-16T22:59:40.845Z,87.42
2024-02-16T23:02:08.828Z,86.71
2024-02-16T23:04:36.731Z,87.98
2024-02-16T23:07:06.291Z,86.29
2024-02-16T23:09:34.516Z,86.74
2024-02-16T23:12:04.400Z,86.45
2024-02-16T23:14:33.156Z,86.78
2024-02-16T23:17:01.310Z,86.68
2024-02-16T23:19:29.228Z,87.09
2024-02-16T23:21:57.128Z,86.48
2024-02-16T23:24:24.843Z,86.47
2024-02-16T23:26:52.570Z,86.75
2024-02-16T23:29:20.335Z,86.34
2024-02-16T23:31:48.139Z,86.38
2024-02-16T23:34:16.528Z,86.82
2024-02-16T23:36:44.255Z,86.27
2024-02-16T23:39:11.999Z,86.24
2024-02-16T23:41:40.329Z,86.33
2024-02-16T23:44:08.081Z,86.74
2024-02-16T23:46:36.762Z,86.82
2024-02-16T23:49:04.942Z,87.03
2024-02-16T23:51:32.969Z,86.67
2024-02-16T23:54:00.881Z,86.70
2024-02-16T23:56:28.657Z,86.75
2024-02-16T23:58:56.341Z,86.84
